Nearby METAR Reports

 

KNUQ - Moffett Nas/Mtn, California, USA
Distance from station: N 9mi, 14km
Updated: Thu, 14-Dec-2017 9:56am PST
Clear
Clear
 Wind from calm
Wind: Calm
Temperature: 52°F , 11°C
Dew Point: 43°F , 6°C
Humidity: 72%
Barometer: 30.14 inHg , 1020.7 hPa
Clouds: Clear
Visibility: 9 miles , 14 km
2017/12/14 17:56 KNUQ 141756Z 00000KT 9SM CLR 11/06 A3014 RMK AO2 SLP209 T01110056 10117 20033 51018
KSJC - San Jose, California, USA
Distance from station: NE 9mi, 14km
Updated: Thu, 14-Dec-2017 9:53am PST
Few Clouds
Few Clouds
 Wind from calm
Wind: Calm
Temperature: 54°F , 12°C
Dew Point: 37°F , 3°C
Humidity: 54%
Barometer: 30.14 inHg , 1020.7 hPa
Clouds: Few Clouds
Visibility: 7 miles , 11 km
Cloud details: Few Clouds 10000 ft
2017/12/14 17:53 KSJC 141753Z 00000KT 7SM FEW100 12/03 A3014 RMK AO2 SLP204 T01170033 10117 20039 51018
 
KRHV - San Jose/Reid, California, USA
Distance from station: ENE 12mi, 19km
Updated: Thu, 14-Dec-2017 10:47am PST
Clear
Clear
 Wind from calm
Wind: Calm
Temperature: 59°F , 15°C
Dew Point: 39°F , 4°C
Humidity: 48%
Barometer: 30.11 inHg , 1019.6 hPa
Clouds: Clear
Visibility: 10 miles , 16 km
2017/12/14 18:47 KRHV 141847Z 00000KT 10SM SKC 15/04 A3011
KPAO - Palo Alto, California, USA
Distance from station: NNW 14mi, 23km
Updated: Thu, 14-Dec-2017 10:47am PST
Clear
Clear
 Wind from varies
Wind: varies 9 mph , 15 km/h
Temperature: 55°F , 13°C
Dew Point: 46°F , 8°C
Humidity: 72%
Barometer: 30.13 inHg , 1020.3 hPa
Clouds: Clear
Visibility: 10 miles , 16 km
2017/12/14 18:47 KPAO 141847Z VRB08KT 10SM SKC 13/08 A3013
 
KSQL - San Carlos Airpo, California, USA
Distance from station: NW 21mi, 34km
Updated: Thu, 14-Dec-2017 10:47am PST
Few Clouds
Few Clouds
 Wind from varies
Wind: varies 3 mph , 6 km/h
Temperature: 54°F , 12°C
Dew Point: 46°F , 8°C
Humidity: 77%
Barometer: 30.13 inHg , 1020.3 hPa
Clouds: Few Clouds
Visibility: 8 miles , 13 km
Cloud details: Few Clouds 20000 ft
2017/12/14 18:47 KSQL 141847Z VRB03KT 8SM FEW200 12/08 A3013
KWVI - Watsonville, California, USA
Distance from station: SSE 27mi, 44km
Updated: Thu, 14-Dec-2017 9:53am PST
Clear
Clear
 Wind from E
Wind: E 3 mph , 6 km/h
Temperature: 54°F , 12°C
Dew Point: 36°F , 2°C
Humidity: 51%
Barometer: 30.12 inHg , 1020 hPa
Clouds: Clear
Visibility: 10 miles , 16 km
2017/12/14 17:53 KWVI 141753Z AUTO 10003KT 10SM CLR 12/02 A3012 RMK AO2 SLP198 T01220017 10122 20028 53015
 
KHWD - Hayward, California, USA
Distance from station: N 28mi, 44km
Updated: Thu, 14-Dec-2017 10:14am PST
Clear
Clear
 Wind from calm
Wind: Calm
Temperature: 54°F , 12°C
Dew Point: 36°F , 2°C
Humidity: 51%
Barometer: 30.13 inHg , 1020.3 hPa
Clouds: Clear
Visibility: 7 miles , 11 km
2017/12/14 18:14 KHWD 141814Z 00000KT 7SM CLR 12/02 A3013 RMK AO2 T01220022
KSFO - San Francisco, California, USA
Distance from station: NW 30mi, 49km
Updated: Thu, 14-Dec-2017 9:56am PST
Few Clouds
Few Clouds
 Wind from calm
Wind: Calm
Temperature: 54°F , 12°C
Dew Point: 46°F , 8°C
Humidity: 77%
Barometer: 30.13 inHg , 1020.3 hPa
Clouds: Few Clouds
Visibility: 9 miles , 14 km
Cloud details: Few Clouds 20000 ft
2017/12/14 17:56 KSFO 141756Z 00000KT 9SM FEW200 12/08 A3013 RMK AO2 SLP203 T01170083 10117 20061 51016
 
KHAF - Half Moon Bay, California, USA
Distance from station: WNW 31mi, 50km
Updated: Thu, 14-Dec-2017 10:35am PST
Clear
Clear
 Wind from WSW
Wind: WSW 6 mph , 9 km/h
Temperature: 64°F , 18°C
Dew Point: 36°F , 2°C
Humidity: 34%
Barometer: 30.08 inHg , 1018.6 hPa
Clouds: Clear
Visibility: 7 miles , 11 km
2017/12/14 18:35 KHAF 141835Z AUTO 24005KT 7SM CLR 18/02 A3008 RMK AO2
KOAK - Oakland, California, USA
Distance from station: NNW 31mi, 50km
Updated: Thu, 14-Dec-2017 9:53am PST
Few Clouds
Few Clouds
 Wind from SSW
Wind: SSW 5 mph , 7 km/h
Temperature: 50°F , 10°C
Wind Chill: 48°F , 9°C
Dew Point: 45°F , 7°C
Humidity: 82%
Barometer: 30.14 inHg , 1020.7 hPa
Clouds: Few Clouds
Visibility: 10 miles , 16 km
Cloud details: Few Clouds 20000 ft
2017/12/14 17:53 KOAK 141753Z 21004KT 10SM FEW200 10/07 A3014 RMK AO2 SLP204 T01000067 10100 20011 51015
 
KLVK - Livermore, California, USA
Distance from station: NNE 31mi, 51km
Updated: Thu, 14-Dec-2017 9:53am PST
Clear
Clear
 Wind from ENE
Wind: ENE 8 mph , 13 km/h
Temperature: 63°F , 17°C
Dew Point: 34°F , 1°C
Humidity: 34%
Barometer: 30.12 inHg , 1020 hPa
Clouds: Clear
Visibility: 10 miles , 16 km
2017/12/14 17:53 KLVK 141753Z 07007KT 10SM CLR 17/01 A3012 RMK AO2 SLP200 T01670006 10167 20011 51017
KCVH - Hollister Muni, California, USA
Distance from station: SE 42mi, 68km
Updated: Thu, 14-Dec-2017 10:35am PST
Clear
Clear
 Wind from calm
Wind: Calm
Temperature: 52°F , 11°C
Dew Point: 32°F , 0°C
Humidity: 47%
Barometer: 30.13 inHg , 1020.3 hPa
Clouds: Clear
Visibility: 10 miles , 16 km
2017/12/14 18:35 KCVH 141835Z AUTO 00000KT 10SM CLR 11/00 A3013 RMK A01
 
KSNS - Salinas, California, USA
Distance from station: SSE 48mi, 77km
Updated: Thu, 14-Dec-2017 9:53am PST
Clear
Clear
 Wind from E
Wind: E 10 mph , 17 km/h
Temperature: 54°F , 12°C
Dew Point: 28°F , -2°C
Humidity: 38%
Barometer: 30.12 inHg , 1020 hPa
Clouds: Clear
Visibility: 9 miles , 14 km
2017/12/14 17:53 KSNS 141753Z 09009KT 9SM CLR 12/M02 A3012 RMK AO2 SLP207 T01171017 10117 20033 53015
KMRY - Monterey, California, USA
Distance from station: SSE 49mi, 78km
Updated: Thu, 14-Dec-2017 9:54am PST
Clear
Clear
 Wind from calm
Wind: Calm
Temperature: 55°F , 13°C
Dew Point: 37°F , 3°C
Humidity: 51%
Barometer: 30.10 inHg , 1019.3 hPa
Clouds: Clear
Visibility: 10 miles , 16 km
2017/12/14 17:54 KMRY 141754Z 00000KT 10SM CLR 13/03 A3010 RMK AO2 SLP207 T01280028 10128 20050 53017
 
KCCR - Concord, California, USA
Distance from station: N 50mi, 81km
Updated: Thu, 14-Dec-2017 9:53am PST
Clear
Clear
 Wind from calm
Wind: Calm
Temperature: 52°F , 11°C
Dew Point: 43°F , 6°C
Humidity: 72%
Barometer: 30.15 inHg , 1021 hPa
Clouds: Clear
Visibility: 7 miles , 11 km
2017/12/14 17:53 KCCR 141753Z 00000KT 7SM CLR 11/06 A3015 RMK AO2 SLP196 T01060056 10106 20017 51020

Metar display script from Saratoga-Weather.org